Springfield, Illinois
Current Conditions -  °F | °C
As of 7:32 PM on Wednesday 26 Nov 2014 (Local Time) from KSPI Reporting Station
Light Snow Light Snow  
Wind Chill: 22°   Ceiling: 1400
Heat Index: 30°   Visibility: 1.2mi
Dew Point: 28°   Wind: 9mph
Humidity: 92%   Direction: 60°ENE
Pressure: 30.11"   Gusts: NA
Location:  39.8°N, 89.64°W
Report Text: KSPI 270132Z 06008KT 1 1/4SM -SN BR FEW006 OVC014 M01/M02 A3011 RMK AO2 P0002 T10111022
Loading
Personal Weather Stations






























Interactive Weather Map New forecast layout! Learn more

10-Day Weather Forecast

Advertisements
Track Severe Weather on mobile